sensor_id;sensor_type;location;lat;lon;timestamp;P1;durP1;ratioP1;P2;durP2;ratioP2
25191;SDS011;13143;50.924;5.320;2024-03-22T00:01:54;71.13;;;38.85;;
25191;SDS011;13143;50.924;5.320;2024-03-22T00:04:20;70.05;;;38.95;;
25191;SDS011;13143;50.924;5.320;2024-03-22T00:06:48;71.40;;;37.25;;
25191;SDS011;13143;50.924;5.320;2024-03-22T00:09:17;67.85;;;37.05;;
25191;SDS011;13143;50.924;5.320;2024-03-22T00:11:43;70.50;;;37.83;;
25191;SDS011;13143;50.924;5.320;2024-03-22T00:14:10;69.28;;;37.28;;
25191;SDS011;13143;50.924;5.320;2024-03-22T00:16:37;70.50;;;37.33;;
25191;SDS011;13143;50.924;5.320;2024-03-22T00:19:03;68.45;;;37.22;;
25191;SDS011;13143;50.924;5.320;2024-03-22T00:21:29;67.45;;;36.67;;
25191;SDS011;13143;50.924;5.320;2024-03-22T00:23:56;70.72;;;37.33;;
25191;SDS011;13143;50.924;5.320;2024-03-22T00:26:22;71.70;;;36.33;;
25191;SDS011;13143;50.924;5.320;2024-03-22T00:28:48;68.45;;;37.25;;
25191;SDS011;13143;50.924;5.320;2024-03-22T00:31:14;70.35;;;36.97;;
25191;SDS011;13143;50.924;5.320;2024-03-22T00:33:41;66.88;;;36.72;;
25191;SDS011;13143;50.924;5.320;2024-03-22T00:36:07;63.45;;;36.05;;
25191;SDS011;13143;50.924;5.320;2024-03-22T00:38:33;62.63;;;36.28;;
25191;SDS011;13143;50.924;5.320;2024-03-22T00:40:59;62.78;;;36.67;;
25191;SDS011;13143;50.924;5.320;2024-03-22T00:43:25;64.97;;;36.65;;
25191;SDS011;13143;50.924;5.320;2024-03-22T00:45:51;68.72;;;36.50;;
25191;SDS011;13143;50.924;5.320;2024-03-22T00:48:17;69.65;;;36.50;;
25191;SDS011;13143;50.924;5.320;2024-03-22T00:50:43;63.78;;;35.85;;
25191;SDS011;13143;50.924;5.320;2024-03-22T00:53:09;68.80;;;37.45;;
25191;SDS011;13143;50.924;5.320;2024-03-22T00:55:35;65.22;;;35.90;;
25191;SDS011;13143;50.924;5.320;2024-03-22T00:58:01;62.45;;;34.88;;
25191;SDS011;13143;50.924;5.320;2024-03-22T01:00:27;64.20;;;35.67;;
25191;SDS011;13143;50.924;5.320;2024-03-22T01:02:53;60.42;;;36.03;;
25191;SDS011;13143;50.924;5.320;2024-03-22T01:05:19;62.42;;;36.95;;
25191;SDS011;13143;50.924;5.320;2024-03-22T01:07:45;61.45;;;35.22;;
25191;SDS011;13143;50.924;5.320;2024-03-22T01:10:11;66.75;;;35.92;;
25191;SDS011;13143;50.924;5.320;2024-03-22T01:12:38;66.30;;;35.03;;
25191;SDS011;13143;50.924;5.320;2024-03-22T01:15:05;60.10;;;35.00;;
25191;SDS011;13143;50.924;5.320;2024-03-22T01:17:32;65.70;;;35.97;;
25191;SDS011;13143;50.924;5.320;2024-03-22T01:19:58;61.90;;;35.83;;
25191;SDS011;13143;50.924;5.320;2024-03-22T01:22:24;60.80;;;35.28;;
25191;SDS011;13143;50.924;5.320;2024-03-22T01:24:50;61.35;;;35.80;;
25191;SDS011;13143;50.924;5.320;2024-03-22T01:27:16;72.45;;;36.75;;
25191;SDS011;13143;50.924;5.320;2024-03-22T01:29:42;66.72;;;35.63;;
25191;SDS011;13143;50.924;5.320;2024-03-22T01:32:08;63.67;;;37.22;;
25191;SDS011;13143;50.924;5.320;2024-03-22T01:34:33;63.80;;;36.70;;
25191;SDS011;13143;50.924;5.320;2024-03-22T01:37:00;65.95;;;36.60;;
25191;SDS011;13143;50.924;5.320;2024-03-22T01:39:26;68.38;;;35.70;;
25191;SDS011;13143;50.924;5.320;2024-03-22T01:41:52;71.32;;;37.25;;
25191;SDS011;13143;50.924;5.320;2024-03-22T01:44:18;64.13;;;38.22;;
25191;SDS011;13143;50.924;5.320;2024-03-22T01:46:44;65.60;;;36.95;;
25191;SDS011;13143;50.924;5.320;2024-03-22T01:49:13;69.70;;;38.30;;
25191;SDS011;13143;50.924;5.320;2024-03-22T01:51:41;65.05;;;38.53;;
25191;SDS011;13143;50.924;5.320;2024-03-22T01:54:11;64.40;;;37.15;;
25191;SDS011;13143;50.924;5.320;2024-03-22T01:56:37;71.25;;;38.00;;
25191;SDS011;13143;50.924;5.320;2024-03-22T01:59:07;66.70;;;37.33;;
25191;SDS011;13143;50.924;5.320;2024-03-22T02:01:33;64.55;;;37.17;;
25191;SDS011;13143;50.924;5.320;2024-03-22T02:04:00;65.78;;;38.40;;
25191;SDS011;13143;50.924;5.320;2024-03-22T02:06:26;67.03;;;38.05;;
25191;SDS011;13143;50.924;5.320;2024-03-22T02:08:52;67.00;;;37.92;;
25191;SDS011;13143;50.924;5.320;2024-03-22T02:11:19;63.15;;;37.88;;
25191;SDS011;13143;50.924;5.320;2024-03-22T02:13:45;63.28;;;37.78;;
25191;SDS011;13143;50.924;5.320;2024-03-22T02:16:11;68.20;;;37.67;;
25191;SDS011;13143;50.924;5.320;2024-03-22T02:18:38;64.60;;;37.00;;
25191;SDS011;13143;50.924;5.320;2024-03-22T02:21:04;69.13;;;38.95;;
25191;SDS011;13143;50.924;5.320;2024-03-22T02:23:33;66.50;;;39.10;;
25191;SDS011;13143;50.924;5.320;2024-03-22T02:26:02;71.50;;;39.03;;
25191;SDS011;13143;50.924;5.320;2024-03-22T02:28:30;60.25;;;36.08;;
25191;SDS011;13143;50.924;5.320;2024-03-22T02:30:57;66.05;;;37.17;;
25191;SDS011;13143;50.924;5.320;2024-03-22T02:33:24;62.85;;;36.97;;
25191;SDS011;13143;50.924;5.320;2024-03-22T02:35:50;63.20;;;37.10;;
25191;SDS011;13143;50.924;5.320;2024-03-22T02:38:16;64.60;;;36.92;;
25191;SDS011;13143;50.924;5.320;2024-03-22T02:40:43;56.90;;;35.88;;
25191;SDS011;13143;50.924;5.320;2024-03-22T02:43:10;62.08;;;36.40;;
25191;SDS011;13143;50.924;5.320;2024-03-22T02:45:36;63.67;;;36.83;;
25191;SDS011;13143;50.924;5.320;2024-03-22T02:48:02;59.67;;;36.67;;
25191;SDS011;13143;50.924;5.320;2024-03-22T02:50:33;60.28;;;36.03;;
25191;SDS011;13143;50.924;5.320;2024-03-22T02:52:59;59.47;;;35.38;;
25191;SDS011;13143;50.924;5.320;2024-03-22T02:55:25;58.60;;;35.10;;
25191;SDS011;13143;50.924;5.320;2024-03-22T02:57:51;64.32;;;34.63;;
25191;SDS011;13143;50.924;5.320;2024-03-22T03:00:17;58.25;;;34.53;;
25191;SDS011;13143;50.924;5.320;2024-03-22T03:02:43;59.00;;;33.83;;
25191;SDS011;13143;50.924;5.320;2024-03-22T03:05:10;53.35;;;33.20;;
25191;SDS011;13143;50.924;5.320;2024-03-22T03:07:36;54.05;;;34.00;;
25191;SDS011;13143;50.924;5.320;2024-03-22T03:10:02;56.90;;;33.38;;
25191;SDS011;13143;50.924;5.320;2024-03-22T03:12:28;53.47;;;34.53;;
25191;SDS011;13143;50.924;5.320;2024-03-22T03:14:54;53.38;;;33.63;;
25191;SDS011;13143;50.924;5.320;2024-03-22T03:17:20;59.67;;;34.45;;
25191;SDS011;13143;50.924;5.320;2024-03-22T03:19:46;54.88;;;32.60;;
25191;SDS011;13143;50.924;5.320;2024-03-22T03:22:13;55.95;;;32.33;;
25191;SDS011;13143;50.924;5.320;2024-03-22T03:24:39;56.47;;;32.33;;
25191;SDS011;13143;50.924;5.320;2024-03-22T03:27:05;52.70;;;31.80;;
25191;SDS011;13143;50.924;5.320;2024-03-22T03:29:31;54.80;;;32.63;;
25191;SDS011;13143;50.924;5.320;2024-03-22T03:31:56;57.80;;;31.65;;
25191;SDS011;13143;50.924;5.320;2024-03-22T03:34:23;53.53;;;32.80;;
25191;SDS011;13143;50.924;5.320;2024-03-22T03:36:49;57.47;;;32.47;;
25191;SDS011;13143;50.924;5.320;2024-03-22T03:39:14;56.72;;;32.65;;
25191;SDS011;13143;50.924;5.320;2024-03-22T03:41:40;55.80;;;32.15;;
25191;SDS011;13143;50.924;5.320;2024-03-22T03:44:06;53.22;;;31.95;;
25191;SDS011;13143;50.924;5.320;2024-03-22T03:46:32;53.50;;;31.02;;
25191;SDS011;13143;50.924;5.320;2024-03-22T03:48:58;56.88;;;33.38;;
25191;SDS011;13143;50.924;5.320;2024-03-22T03:51:24;57.00;;;32.17;;
25191;SDS011;13143;50.924;5.320;2024-03-22T03:53:50;55.60;;;32.08;;
25191;SDS011;13143;50.924;5.320;2024-03-22T03:56:16;51.47;;;30.95;;
25191;SDS011;13143;50.924;5.320;2024-03-22T03:58:42;50.60;;;30.80;;
25191;SDS011;13143;50.924;5.320;2024-03-22T04:01:10;51.55;;;30.42;;
25191;SDS011;13143;50.924;5.320;2024-03-22T04:03:36;49.83;;;29.48;;
25191;SDS011;13143;50.924;5.320;2024-03-22T04:06:02;48.95;;;29.08;;
25191;SDS011;13143;50.924;5.320;2024-03-22T04:08:28;51.20;;;30.33;;
25191;SDS011;13143;50.924;5.320;2024-03-22T04:10:56;52.80;;;29.83;;
25191;SDS011;13143;50.924;5.320;2024-03-22T04:13:23;53.55;;;28.88;;
25191;SDS011;13143;50.924;5.320;2024-03-22T04:15:49;48.60;;;28.77;;
25191;SDS011;13143;50.924;5.320;2024-03-22T04:18:15;49.03;;;29.88;;
25191;SDS011;13143;50.924;5.320;2024-03-22T04:20:41;54.30;;;27.70;;
25191;SDS011;13143;50.924;5.320;2024-03-22T04:23:08;48.10;;;27.88;;
25191;SDS011;13143;50.924;5.320;2024-03-22T04:25:34;45.42;;;26.55;;
25191;SDS011;13143;50.924;5.320;2024-03-22T04:28:00;52.15;;;28.40;;
25191;SDS011;13143;50.924;5.320;2024-03-22T04:30:25;48.78;;;27.65;;
25191;SDS011;13143;50.924;5.320;2024-03-22T04:32:51;44.00;;;27.70;;
25191;SDS011;13143;50.924;5.320;2024-03-22T04:35:17;43.20;;;27.40;;
25191;SDS011;13143;50.924;5.320;2024-03-22T04:37:43;46.92;;;26.48;;
25191;SDS011;13143;50.924;5.320;2024-03-22T04:40:09;45.35;;;25.70;;
25191;SDS011;13143;50.924;5.320;2024-03-22T04:42:36;42.03;;;25.92;;
25191;SDS011;13143;50.924;5.320;2024-03-22T04:45:02;46.05;;;26.48;;
25191;SDS011;13143;50.924;5.320;2024-03-22T04:47:28;45.13;;;24.13;;
25191;SDS011;13143;50.924;5.320;2024-03-22T04:49:54;42.83;;;23.77;;
25191;SDS011;13143;50.924;5.320;2024-03-22T04:52:20;41.53;;;24.23;;
25191;SDS011;13143;50.924;5.320;2024-03-22T04:54:46;43.60;;;23.40;;
25191;SDS011;13143;50.924;5.320;2024-03-22T04:57:13;38.45;;;23.67;;
25191;SDS011;13143;50.924;5.320;2024-03-22T04:59:39;37.10;;;23.63;;
25191;SDS011;13143;50.924;5.320;2024-03-22T05:02:04;36.63;;;23.33;;
25191;SDS011;13143;50.924;5.320;2024-03-22T05:04:31;37.35;;;21.88;;
25191;SDS011;13143;50.924;5.320;2024-03-22T05:06:56;36.53;;;22.23;;
25191;SDS011;13143;50.924;5.320;2024-03-22T05:09:22;37.08;;;22.02;;
25191;SDS011;13143;50.924;5.320;2024-03-22T05:11:48;41.00;;;22.25;;
25191;SDS011;13143;50.924;5.320;2024-03-22T05:14:18;40.22;;;22.25;;
25191;SDS011;13143;50.924;5.320;2024-03-22T05:16:44;37.80;;;22.15;;
25191;SDS011;13143;50.924;5.320;2024-03-22T05:19:10;34.78;;;21.67;;
25191;SDS011;13143;50.924;5.320;2024-03-22T05:21:36;40.88;;;23.27;;
25191;SDS011;13143;50.924;5.320;2024-03-22T05:24:02;35.40;;;22.25;;
25191;SDS011;13143;50.924;5.320;2024-03-22T05:26:28;42.53;;;24.17;;
25191;SDS011;13143;50.924;5.320;2024-03-22T05:28:57;45.88;;;24.27;;
25191;SDS011;13143;50.924;5.320;2024-03-22T05:31:23;41.60;;;23.88;;
25191;SDS011;13143;50.924;5.320;2024-03-22T05:33:49;44.85;;;23.75;;
25191;SDS011;13143;50.924;5.320;2024-03-22T05:36:15;43.38;;;24.58;;
25191;SDS011;13143;50.924;5.320;2024-03-22T05:38:41;44.15;;;25.88;;
25191;SDS011;13143;50.924;5.320;2024-03-22T05:41:07;48.10;;;24.75;;
25191;SDS011;13143;50.924;5.320;2024-03-22T05:43:33;47.95;;;24.30;;
25191;SDS011;13143;50.924;5.320;2024-03-22T05:45:59;43.42;;;24.92;;
25191;SDS011;13143;50.924;5.320;2024-03-22T05:48:25;41.88;;;25.63;;
25191;SDS011;13143;50.924;5.320;2024-03-22T05:50:51;44.63;;;26.20;;
25191;SDS011;13143;50.924;5.320;2024-03-22T05:53:18;42.70;;;24.58;;
25191;SDS011;13143;50.924;5.320;2024-03-22T05:55:43;51.10;;;26.90;;
25191;SDS011;13143;50.924;5.320;2024-03-22T05:58:09;45.50;;;26.00;;
25191;SDS011;13143;50.924;5.320;2024-03-22T06:00:35;45.75;;;25.98;;
25191;SDS011;13143;50.924;5.320;2024-03-22T06:03:01;42.85;;;25.60;;
25191;SDS011;13143;50.924;5.320;2024-03-22T06:05:27;48.75;;;27.15;;
25191;SDS011;13143;50.924;5.320;2024-03-22T06:07:53;41.10;;;26.38;;
25191;SDS011;13143;50.924;5.320;2024-03-22T06:10:20;45.13;;;26.55;;
25191;SDS011;13143;50.924;5.320;2024-03-22T06:12:47;45.80;;;25.73;;
25191;SDS011;13143;50.924;5.320;2024-03-22T06:15:13;46.25;;;25.77;;
25191;SDS011;13143;50.924;5.320;2024-03-22T06:17:40;42.30;;;24.90;;
25191;SDS011;13143;50.924;5.320;2024-03-22T06:20:07;41.97;;;26.08;;
25191;SDS011;13143;50.924;5.320;2024-03-22T06:22:35;45.78;;;27.27;;
25191;SDS011;13143;50.924;5.320;2024-03-22T06:25:01;48.25;;;26.00;;
25191;SDS011;13143;50.924;5.320;2024-03-22T06:27:27;43.05;;;26.63;;
25191;SDS011;13143;50.924;5.320;2024-03-22T06:29:53;39.10;;;23.50;;
25191;SDS011;13143;50.924;5.320;2024-03-22T06:32:19;41.92;;;25.73;;
25191;SDS011;13143;50.924;5.320;2024-03-22T06:34:45;37.25;;;23.42;;
25191;SDS011;13143;50.924;5.320;2024-03-22T06:37:11;38.28;;;23.77;;
25191;SDS011;13143;50.924;5.320;2024-03-22T06:39:37;41.05;;;23.88;;
25191;SDS011;13143;50.924;5.320;2024-03-22T06:42:03;40.80;;;23.30;;
25191;SDS011;13143;50.924;5.320;2024-03-22T06:44:29;37.63;;;23.60;;
25191;SDS011;13143;50.924;5.320;2024-03-22T06:46:55;40.58;;;22.35;;
25191;SDS011;13143;50.924;5.320;2024-03-22T06:49:20;36.47;;;22.80;;
25191;SDS011;13143;50.924;5.320;2024-03-22T06:51:46;38.03;;;22.73;;
25191;SDS011;13143;50.924;5.320;2024-03-22T06:54:12;37.05;;;21.75;;
25191;SDS011;13143;50.924;5.320;2024-03-22T06:56:38;38.13;;;23.00;;
25191;SDS011;13143;50.924;5.320;2024-03-22T06:59:04;39.00;;;21.80;;
25191;SDS011;13143;50.924;5.320;2024-03-22T07:01:30;36.92;;;21.75;;
25191;SDS011;13143;50.924;5.320;2024-03-22T07:03:56;42.55;;;22.88;;
25191;SDS011;13143;50.924;5.320;2024-03-22T07:06:22;35.95;;;22.95;;
25191;SDS011;13143;50.924;5.320;2024-03-22T07:08:48;40.85;;;21.85;;
25191;SDS011;13143;50.924;5.320;2024-03-22T07:11:13;39.35;;;22.70;;
25191;SDS011;13143;50.924;5.320;2024-03-22T07:13:39;39.50;;;22.60;;
25191;SDS011;13143;50.924;5.320;2024-03-22T07:16:05;42.85;;;24.00;;
25191;SDS011;13143;50.924;5.320;2024-03-22T07:18:31;43.15;;;22.55;;
25191;SDS011;13143;50.924;5.320;2024-03-22T07:20:58;40.45;;;23.67;;
25191;SDS011;13143;50.924;5.320;2024-03-22T07:23:26;41.45;;;23.08;;
25191;SDS011;13143;50.924;5.320;2024-03-22T07:25:53;42.95;;;22.80;;
25191;SDS011;13143;50.924;5.320;2024-03-22T07:28:19;39.90;;;23.38;;
25191;SDS011;13143;50.924;5.320;2024-03-22T07:30:45;36.00;;;22.45;;
25191;SDS011;13143;50.924;5.320;2024-03-22T07:33:11;40.53;;;23.58;;
25191;SDS011;13143;50.924;5.320;2024-03-22T07:35:42;39.13;;;23.92;;
25191;SDS011;13143;50.924;5.320;2024-03-22T07:38:08;40.85;;;23.13;;
25191;SDS011;13143;50.924;5.320;2024-03-22T07:40:33;43.10;;;24.75;;
25191;SDS011;13143;50.924;5.320;2024-03-22T07:42:59;41.97;;;24.50;;
25191;SDS011;13143;50.924;5.320;2024-03-22T07:45:31;41.85;;;25.05;;
25191;SDS011;13143;50.924;5.320;2024-03-22T07:48:00;42.65;;;24.92;;
25191;SDS011;13143;50.924;5.320;2024-03-22T07:50:27;38.75;;;23.75;;
25191;SDS011;13143;50.924;5.320;2024-03-22T07:52:53;41.25;;;25.25;;
25191;SDS011;13143;50.924;5.320;2024-03-22T07:55:19;42.13;;;24.33;;
25191;SDS011;13143;50.924;5.320;2024-03-22T07:57:45;37.30;;;24.48;;
25191;SDS011;13143;50.924;5.320;2024-03-22T08:00:11;40.50;;;25.02;;
25191;SDS011;13143;50.924;5.320;2024-03-22T08:02:37;39.22;;;24.23;;
25191;SDS011;13143;50.924;5.320;2024-03-22T08:05:03;45.63;;;25.25;;
25191;SDS011;13143;50.924;5.320;2024-03-22T08:07:30;37.97;;;23.90;;
25191;SDS011;13143;50.924;5.320;2024-03-22T08:09:56;43.65;;;24.65;;
25191;SDS011;13143;50.924;5.320;2024-03-22T08:12:24;37.33;;;22.35;;
25191;SDS011;13143;50.924;5.320;2024-03-22T08:14:50;38.67;;;22.88;;
25191;SDS011;13143;50.924;5.320;2024-03-22T08:17:16;38.47;;;22.30;;
25191;SDS011;13143;50.924;5.320;2024-03-22T08:19:42;34.85;;;22.02;;
25191;SDS011;13143;50.924;5.320;2024-03-22T08:22:10;39.53;;;22.75;;
25191;SDS011;13143;50.924;5.320;2024-03-22T08:24:36;43.55;;;23.17;;
25191;SDS011;13143;50.924;5.320;2024-03-22T08:27:03;35.45;;;21.85;;
25191;SDS011;13143;50.924;5.320;2024-03-22T08:29:29;35.70;;;21.60;;
25191;SDS011;13143;50.924;5.320;2024-03-22T08:31:55;41.03;;;21.92;;
25191;SDS011;13143;50.924;5.320;2024-03-22T08:34:21;36.53;;;20.63;;
25191;SDS011;13143;50.924;5.320;2024-03-22T08:36:47;35.85;;;21.45;;
25191;SDS011;13143;50.924;5.320;2024-03-22T08:39:13;33.28;;;20.50;;
25191;SDS011;13143;50.924;5.320;2024-03-22T08:41:38;37.72;;;22.40;;
25191;SDS011;13143;50.924;5.320;2024-03-22T08:44:04;36.53;;;21.10;;
25191;SDS011;13143;50.924;5.320;2024-03-22T08:46:30;31.08;;;19.80;;
25191;SDS011;13143;50.924;5.320;2024-03-22T08:48:57;30.48;;;19.67;;
25191;SDS011;13143;50.924;5.320;2024-03-22T08:51:24;29.60;;;19.77;;
25191;SDS011;13143;50.924;5.320;2024-03-22T08:53:50;29.00;;;18.35;;
25191;SDS011;13143;50.924;5.320;2024-03-22T08:56:16;26.98;;;17.75;;
25191;SDS011;13143;50.924;5.320;2024-03-22T08:58:41;28.40;;;16.77;;
25191;SDS011;13143;50.924;5.320;2024-03-22T09:01:07;25.55;;;16.70;;
25191;SDS011;13143;50.924;5.320;2024-03-22T09:03:36;24.88;;;16.65;;
25191;SDS011;13143;50.924;5.320;2024-03-22T09:06:02;26.15;;;17.15;;
25191;SDS011;13143;50.924;5.320;2024-03-22T09:08:28;28.05;;;17.30;;
25191;SDS011;13143;50.924;5.320;2024-03-22T09:10:55;28.90;;;17.08;;
25191;SDS011;13143;50.924;5.320;2024-03-22T09:13:21;28.67;;;16.80;;
25191;SDS011;13143;50.924;5.320;2024-03-22T09:15:47;30.23;;;16.65;;
25191;SDS011;13143;50.924;5.320;2024-03-22T09:18:12;27.42;;;16.98;;
25191;SDS011;13143;50.924;5.320;2024-03-22T09:20:39;25.77;;;16.30;;
25191;SDS011;13143;50.924;5.320;2024-03-22T09:23:05;24.02;;;16.05;;
25191;SDS011;13143;50.924;5.320;2024-03-22T09:25:31;28.90;;;16.50;;
25191;SDS011;13143;50.924;5.320;2024-03-22T09:27:56;23.08;;;15.70;;
25191;SDS011;13143;50.924;5.320;2024-03-22T09:30:22;22.92;;;15.35;;
25191;SDS011;13143;50.924;5.320;2024-03-22T09:32:49;24.95;;;15.60;;
25191;SDS011;13143;50.924;5.320;2024-03-22T09:35:17;22.17;;;15.07;;
25191;SDS011;13143;50.924;5.320;2024-03-22T09:37:43;25.80;;;15.23;;
25191;SDS011;13143;50.924;5.320;2024-03-22T09:40:09;23.77;;;15.80;;
25191;SDS011;13143;50.924;5.320;2024-03-22T09:42:38;22.23;;;16.23;;
25191;SDS011;13143;50.924;5.320;2024-03-22T09:45:10;24.23;;;15.88;;
25191;SDS011;13143;50.924;5.320;2024-03-22T09:47:36;22.40;;;14.90;;
25191;SDS011;13143;50.924;5.320;2024-03-22T09:50:06;24.20;;;16.35;;
25191;SDS011;13143;50.924;5.320;2024-03-22T09:52:33;23.30;;;15.00;;
25191;SDS011;13143;50.924;5.320;2024-03-22T09:55:00;23.90;;;15.55;;
25191;SDS011;13143;50.924;5.320;2024-03-22T09:57:29;22.42;;;14.88;;
25191;SDS011;13143;50.924;5.320;2024-03-22T09:59:57;24.17;;;15.77;;
25191;SDS011;13143;50.924;5.320;2024-03-22T10:02:23;21.10;;;14.23;;
25191;SDS011;13143;50.924;5.320;2024-03-22T10:04:51;26.13;;;15.10;;
25191;SDS011;13143;50.924;5.320;2024-03-22T10:07:17;23.33;;;15.48;;
25191;SDS011;13143;50.924;5.320;2024-03-22T10:09:43;26.10;;;15.50;;
25191;SDS011;13143;50.924;5.320;2024-03-22T10:12:10;25.15;;;15.25;;
25191;SDS011;13143;50.924;5.320;2024-03-22T10:14:36;25.63;;;16.55;;
25191;SDS011;13143;50.924;5.320;2024-03-22T10:17:02;27.98;;;16.20;;
25191;SDS011;13143;50.924;5.320;2024-03-22T10:19:28;27.63;;;16.70;;
25191;SDS011;13143;50.924;5.320;2024-03-22T10:22:03;27.08;;;16.67;;
25191;SDS011;13143;50.924;5.320;2024-03-22T10:24:31;24.27;;;16.05;;
25191;SDS011;13143;50.924;5.320;2024-03-22T10:27:00;24.42;;;15.80;;
25191;SDS011;13143;50.924;5.320;2024-03-22T10:29:26;24.13;;;15.27;;
25191;SDS011;13143;50.924;5.320;2024-03-22T10:31:52;21.60;;;15.25;;
25191;SDS011;13143;50.924;5.320;2024-03-22T10:34:22;21.10;;;15.05;;
25191;SDS011;13143;50.924;5.320;2024-03-22T10:36:50;20.98;;;14.07;;
25191;SDS011;13143;50.924;5.320;2024-03-22T10:39:17;21.85;;;14.00;;
25191;SDS011;13143;50.924;5.320;2024-03-22T10:41:45;21.38;;;14.85;;
25191;SDS011;13143;50.924;5.320;2024-03-22T10:44:12;22.92;;;13.80;;
25191;SDS011;13143;50.924;5.320;2024-03-22T10:46:38;23.00;;;13.63;;
25191;SDS011;13143;50.924;5.320;2024-03-22T10:49:08;20.95;;;13.32;;
25191;SDS011;13143;50.924;5.320;2024-03-22T10:51:36;25.05;;;14.35;;
25191;SDS011;13143;50.924;5.320;2024-03-22T10:54:03;21.33;;;14.23;;
25191;SDS011;13143;50.924;5.320;2024-03-22T10:56:31;26.50;;;14.35;;
25191;SDS011;13143;50.924;5.320;2024-03-22T10:59:02;20.70;;;14.10;;
25191;SDS011;13143;50.924;5.320;2024-03-22T11:01:29;20.27;;;13.45;;
25191;SDS011;13143;50.924;5.320;2024-03-22T11:04:05;23.80;;;15.00;;
25191;SDS011;13143;50.924;5.320;2024-03-22T11:06:36;22.00;;;15.13;;
25191;SDS011;13143;50.924;5.320;2024-03-22T11:09:02;22.05;;;14.25;;
25191;SDS011;13143;50.924;5.320;2024-03-22T11:11:31;23.60;;;15.00;;
25191;SDS011;13143;50.924;5.320;2024-03-22T11:14:05;20.27;;;13.73;;
25191;SDS011;13143;50.924;5.320;2024-03-22T11:16:31;21.20;;;14.65;;
25191;SDS011;13143;50.924;5.320;2024-03-22T11:18:57;23.92;;;14.18;;
25191;SDS011;13143;50.924;5.320;2024-03-22T11:21:23;20.45;;;13.43;;
25191;SDS011;13143;50.924;5.320;2024-03-22T11:23:49;24.83;;;15.70;;
25191;SDS011;13143;50.924;5.320;2024-03-22T11:26:15;25.35;;;15.23;;
25191;SDS011;13143;50.924;5.320;2024-03-22T11:28:41;25.90;;;15.70;;
25191;SDS011;13143;50.924;5.320;2024-03-22T11:31:08;21.73;;;14.43;;
25191;SDS011;13143;50.924;5.320;2024-03-22T11:33:34;27.02;;;15.38;;
25191;SDS011;13143;50.924;5.320;2024-03-22T11:36:03;27.23;;;15.90;;
25191;SDS011;13143;50.924;5.320;2024-03-22T11:38:31;28.50;;;16.55;;
25191;SDS011;13143;50.924;5.320;2024-03-22T11:40:57;25.42;;;15.70;;
25191;SDS011;13143;50.924;5.320;2024-03-22T11:43:26;23.35;;;15.63;;
25191;SDS011;13143;50.924;5.320;2024-03-22T11:45:53;26.92;;;16.05;;
25191;SDS011;13143;50.924;5.320;2024-03-22T11:48:20;26.95;;;16.17;;
25191;SDS011;13143;50.924;5.320;2024-03-22T11:50:47;26.88;;;15.23;;
25191;SDS011;13143;50.924;5.320;2024-03-22T11:53:15;27.88;;;16.20;;
25191;SDS011;13143;50.924;5.320;2024-03-22T11:55:42;26.88;;;16.05;;
25191;SDS011;13143;50.924;5.320;2024-03-22T11:58:11;24.95;;;16.75;;
25191;SDS011;13143;50.924;5.320;2024-03-22T12:00:37;23.40;;;15.18;;
25191;SDS011;13143;50.924;5.320;2024-03-22T12:03:04;28.08;;;16.27;;
25191;SDS011;13143;50.924;5.320;2024-03-22T12:05:33;24.05;;;15.05;;
25191;SDS011;13143;50.924;5.320;2024-03-22T12:07:59;29.05;;;16.75;;
25191;SDS011;13143;50.924;5.320;2024-03-22T12:10:25;25.17;;;15.75;;
25191;SDS011;13143;50.924;5.320;2024-03-22T12:12:51;25.77;;;15.70;;
25191;SDS011;13143;50.924;5.320;2024-03-22T12:15:19;26.33;;;17.02;;
25191;SDS011;13143;50.924;5.320;2024-03-22T12:17:45;31.65;;;16.25;;
25191;SDS011;13143;50.924;5.320;2024-03-22T12:20:11;28.33;;;16.13;;
25191;SDS011;13143;50.924;5.320;2024-03-22T12:22:36;24.25;;;16.45;;
25191;SDS011;13143;50.924;5.320;2024-03-22T12:25:02;26.20;;;16.58;;
25191;SDS011;13143;50.924;5.320;2024-03-22T12:27:30;27.67;;;17.38;;
25191;SDS011;13143;50.924;5.320;2024-03-22T12:29:57;27.17;;;17.50;;
25191;SDS011;13143;50.924;5.320;2024-03-22T12:32:22;29.48;;;17.70;;
25191;SDS011;13143;50.924;5.320;2024-03-22T12:34:48;26.13;;;17.65;;
25191;SDS011;13143;50.924;5.320;2024-03-22T12:37:14;31.88;;;18.25;;
25191;SDS011;13143;50.924;5.320;2024-03-22T12:39:41;29.73;;;19.23;;
25191;SDS011;13143;50.924;5.320;2024-03-22T12:42:07;28.38;;;17.48;;
25191;SDS011;13143;50.924;5.320;2024-03-22T12:44:33;32.13;;;19.02;;
25191;SDS011;13143;50.924;5.320;2024-03-22T12:46:58;35.80;;;18.10;;
25191;SDS011;13143;50.924;5.320;2024-03-22T12:49:24;28.42;;;17.27;;
25191;SDS011;13143;50.924;5.320;2024-03-22T12:51:50;36.20;;;18.27;;
25191;SDS011;13143;50.924;5.320;2024-03-22T12:54:16;28.77;;;17.50;;
25191;SDS011;13143;50.924;5.320;2024-03-22T12:56:44;28.55;;;18.17;;
25191;SDS011;13143;50.924;5.320;2024-03-22T12:59:10;29.52;;;16.92;;
25191;SDS011;13143;50.924;5.320;2024-03-22T13:01:36;28.83;;;17.40;;
25191;SDS011;13143;50.924;5.320;2024-03-22T13:04:03;27.40;;;16.23;;
25191;SDS011;13143;50.924;5.320;2024-03-22T13:06:29;28.80;;;16.33;;
25191;SDS011;13143;50.924;5.320;2024-03-22T13:08:55;27.75;;;17.50;;
25191;SDS011;13143;50.924;5.320;2024-03-22T13:11:21;24.65;;;16.92;;
25191;SDS011;13143;50.924;5.320;2024-03-22T13:13:47;25.38;;;16.42;;
25191;SDS011;13143;50.924;5.320;2024-03-22T13:16:13;28.30;;;16.75;;
25191;SDS011;13143;50.924;5.320;2024-03-22T13:18:40;28.25;;;16.98;;
25191;SDS011;13143;50.924;5.320;2024-03-22T13:21:07;22.92;;;16.02;;
25191;SDS011;13143;50.924;5.320;2024-03-22T13:23:33;26.02;;;16.88;;
25191;SDS011;13143;50.924;5.320;2024-03-22T13:26:05;30.90;;;16.13;;
25191;SDS011;13143;50.924;5.320;2024-03-22T13:28:32;23.85;;;15.85;;
25191;SDS011;13143;50.924;5.320;2024-03-22T13:31:02;26.63;;;15.27;;
25191;SDS011;13143;50.924;5.320;2024-03-22T13:33:32;26.70;;;16.55;;
25191;SDS011;13143;50.924;5.320;2024-03-22T13:35:59;30.67;;;16.08;;
25191;SDS011;13143;50.924;5.320;2024-03-22T13:38:26;23.75;;;16.73;;
25191;SDS011;13143;50.924;5.320;2024-03-22T13:40:53;23.02;;;16.13;;
25191;SDS011;13143;50.924;5.320;2024-03-22T13:43:19;37.95;;;20.55;;
25191;SDS011;13143;50.924;5.320;2024-03-22T13:45:45;29.80;;;17.25;;
25191;SDS011;13143;50.924;5.320;2024-03-22T13:48:15;28.15;;;17.02;;
25191;SDS011;13143;50.924;5.320;2024-03-22T13:50:41;32.60;;;18.08;;
25191;SDS011;13143;50.924;5.320;2024-03-22T13:53:07;31.10;;;17.45;;
25191;SDS011;13143;50.924;5.320;2024-03-22T13:55:33;26.15;;;17.60;;
25191;SDS011;13143;50.924;5.320;2024-03-22T13:58:00;31.25;;;17.63;;
25191;SDS011;13143;50.924;5.320;2024-03-22T14:00:26;32.08;;;17.38;;
25191;SDS011;13143;50.924;5.320;2024-03-22T14:02:52;26.50;;;17.27;;
25191;SDS011;13143;50.924;5.320;2024-03-22T14:05:20;29.92;;;17.98;;
25191;SDS011;13143;50.924;5.320;2024-03-22T14:07:46;26.73;;;18.70;;
25191;SDS011;13143;50.924;5.320;2024-03-22T14:10:12;32.47;;;18.88;;
25191;SDS011;13143;50.924;5.320;2024-03-22T14:12:41;30.67;;;19.60;;
25191;SDS011;13143;50.924;5.320;2024-03-22T14:15:08;35.10;;;19.15;;
25191;SDS011;13143;50.924;5.320;2024-03-22T14:17:34;34.42;;;19.02;;